sensor_id;sensor_type;location;lat;lon;timestamp;P1;durP1;ratioP1;P2;durP2;ratioP2
11222;SDS011;5668;52.012;8.724;2023-03-09T00:01:20;18.23;;;14.50;;
11222;SDS011;5668;52.012;8.724;2023-03-09T00:03:48;20.63;;;15.20;;
11222;SDS011;5668;52.012;8.724;2023-03-09T00:06:16;18.97;;;15.60;;
11222;SDS011;5668;52.012;8.724;2023-03-09T00:08:44;18.43;;;14.60;;
11222;SDS011;5668;52.012;8.724;2023-03-09T00:11:13;19.20;;;15.00;;
11222;SDS011;5668;52.012;8.724;2023-03-09T00:13:41;20.63;;;15.27;;
11222;SDS011;5668;52.012;8.724;2023-03-09T00:16:12;18.83;;;14.77;;
11222;SDS011;5668;52.012;8.724;2023-03-09T00:18:40;18.50;;;14.43;;
11222;SDS011;5668;52.012;8.724;2023-03-09T00:21:08;17.97;;;13.47;;
11222;SDS011;5668;52.012;8.724;2023-03-09T00:23:40;18.83;;;14.20;;
11222;SDS011;5668;52.012;8.724;2023-03-09T00:26:07;17.47;;;13.80;;
11222;SDS011;5668;52.012;8.724;2023-03-09T00:28:35;18.70;;;14.20;;
11222;SDS011;5668;52.012;8.724;2023-03-09T00:31:06;17.70;;;13.90;;
11222;SDS011;5668;52.012;8.724;2023-03-09T00:33:34;16.07;;;13.03;;
11222;SDS011;5668;52.012;8.724;2023-03-09T00:36:02;17.50;;;13.77;;
11222;SDS011;5668;52.012;8.724;2023-03-09T00:38:29;17.57;;;14.07;;
11222;SDS011;5668;52.012;8.724;2023-03-09T00:40:57;15.47;;;12.77;;
11222;SDS011;5668;52.012;8.724;2023-03-09T00:43:24;16.33;;;12.97;;
11222;SDS011;5668;52.012;8.724;2023-03-09T00:45:51;15.27;;;12.07;;
11222;SDS011;5668;52.012;8.724;2023-03-09T00:48:18;14.80;;;12.30;;
11222;SDS011;5668;52.012;8.724;2023-03-09T00:50:47;15.33;;;12.23;;
11222;SDS011;5668;52.012;8.724;2023-03-09T00:53:14;16.40;;;12.10;;
11222;SDS011;5668;52.012;8.724;2023-03-09T00:55:41;15.53;;;12.70;;
11222;SDS011;5668;52.012;8.724;2023-03-09T00:58:09;14.10;;;11.70;;
11222;SDS011;5668;52.012;8.724;2023-03-09T01:00:37;13.87;;;12.10;;
11222;SDS011;5668;52.012;8.724;2023-03-09T01:03:04;14.97;;;11.47;;
11222;SDS011;5668;52.012;8.724;2023-03-09T01:05:31;15.23;;;11.83;;
11222;SDS011;5668;52.012;8.724;2023-03-09T01:08:00;14.13;;;11.70;;
11222;SDS011;5668;52.012;8.724;2023-03-09T01:10:27;13.80;;;11.30;;
11222;SDS011;5668;52.012;8.724;2023-03-09T01:12:54;14.93;;;11.80;;
11222;SDS011;5668;52.012;8.724;2023-03-09T01:15:21;13.90;;;11.43;;
11222;SDS011;5668;52.012;8.724;2023-03-09T01:17:49;14.20;;;11.67;;
11222;SDS011;5668;52.012;8.724;2023-03-09T01:20:16;13.13;;;11.07;;
11222;SDS011;5668;52.012;8.724;2023-03-09T01:22:44;13.10;;;10.87;;
11222;SDS011;5668;52.012;8.724;2023-03-09T01:25:13;13.07;;;11.07;;
11222;SDS011;5668;52.012;8.724;2023-03-09T01:27:40;12.67;;;10.50;;
11222;SDS011;5668;52.012;8.724;2023-03-09T01:30:09;12.07;;;10.20;;
11222;SDS011;5668;52.012;8.724;2023-03-09T01:32:37;13.13;;;10.57;;
11222;SDS011;5668;52.012;8.724;2023-03-09T01:35:05;14.57;;;10.20;;
11222;SDS011;5668;52.012;8.724;2023-03-09T01:37:32;12.70;;;10.00;;
11222;SDS011;5668;52.012;8.724;2023-03-09T01:40:00;10.80;;;9.53;;
11222;SDS011;5668;52.012;8.724;2023-03-09T01:42:32;12.83;;;10.43;;
11222;SDS011;5668;52.012;8.724;2023-03-09T01:45:07;12.17;;;10.07;;
11222;SDS011;5668;52.012;8.724;2023-03-09T01:47:57;13.13;;;10.33;;
11222;SDS011;5668;52.012;8.724;2023-03-09T01:50:28;12.97;;;10.17;;
11222;SDS011;5668;52.012;8.724;2023-03-09T01:53:00;12.97;;;10.27;;
11222;SDS011;5668;52.012;8.724;2023-03-09T01:55:34;12.07;;;9.60;;
11222;SDS011;5668;52.012;8.724;2023-03-09T01:58:07;11.90;;;9.90;;
11222;SDS011;5668;52.012;8.724;2023-03-09T02:00:40;12.53;;;9.87;;
11222;SDS011;5668;52.012;8.724;2023-03-09T02:03:11;12.80;;;10.80;;
11222;SDS011;5668;52.012;8.724;2023-03-09T02:05:42;12.33;;;10.43;;
11222;SDS011;5668;52.012;8.724;2023-03-09T02:08:14;11.43;;;9.40;;
11222;SDS011;5668;52.012;8.724;2023-03-09T02:10:44;12.47;;;10.10;;
11222;SDS011;5668;52.012;8.724;2023-03-09T02:13:17;11.03;;;9.27;;
11222;SDS011;5668;52.012;8.724;2023-03-09T02:15:47;11.53;;;9.30;;
11222;SDS011;5668;52.012;8.724;2023-03-09T02:18:15;11.83;;;9.50;;
11222;SDS011;5668;52.012;8.724;2023-03-09T02:20:44;12.03;;;9.73;;
11222;SDS011;5668;52.012;8.724;2023-03-09T02:23:18;11.00;;;8.87;;
11222;SDS011;5668;52.012;8.724;2023-03-09T02:25:56;11.77;;;9.20;;
11222;SDS011;5668;52.012;8.724;2023-03-09T02:28:30;12.20;;;9.30;;
11222;SDS011;5668;52.012;8.724;2023-03-09T02:30:58;11.60;;;9.30;;
11222;SDS011;5668;52.012;8.724;2023-03-09T02:33:27;9.97;;;8.77;;
11222;SDS011;5668;52.012;8.724;2023-03-09T02:35:56;10.20;;;8.40;;
11222;SDS011;5668;52.012;8.724;2023-03-09T02:38:25;11.80;;;8.60;;
11222;SDS011;5668;52.012;8.724;2023-03-09T02:40:53;12.70;;;9.30;;
11222;SDS011;5668;52.012;8.724;2023-03-09T02:43:24;10.93;;;8.70;;
11222;SDS011;5668;52.012;8.724;2023-03-09T02:45:56;9.10;;;7.70;;
11222;SDS011;5668;52.012;8.724;2023-03-09T02:48:24;11.87;;;9.00;;
11222;SDS011;5668;52.012;8.724;2023-03-09T02:50:51;9.87;;;8.37;;
11222;SDS011;5668;52.012;8.724;2023-03-09T02:53:18;8.87;;;7.97;;
11222;SDS011;5668;52.012;8.724;2023-03-09T02:55:46;10.10;;;8.17;;
11222;SDS011;5668;52.012;8.724;2023-03-09T02:58:13;10.40;;;8.30;;
11222;SDS011;5668;52.012;8.724;2023-03-09T03:00:40;11.00;;;8.80;;
11222;SDS011;5668;52.012;8.724;2023-03-09T03:03:09;10.77;;;8.83;;
11222;SDS011;5668;52.012;8.724;2023-03-09T03:05:36;11.03;;;9.20;;
11222;SDS011;5668;52.012;8.724;2023-03-09T03:08:03;10.17;;;8.63;;
11222;SDS011;5668;52.012;8.724;2023-03-09T03:10:31;9.50;;;7.97;;
11222;SDS011;5668;52.012;8.724;2023-03-09T03:12:58;9.97;;;7.97;;
11222;SDS011;5668;52.012;8.724;2023-03-09T03:15:25;10.27;;;8.33;;
11222;SDS011;5668;52.012;8.724;2023-03-09T03:17:52;9.73;;;8.17;;
11222;SDS011;5668;52.012;8.724;2023-03-09T03:20:21;11.37;;;8.70;;
11222;SDS011;5668;52.012;8.724;2023-03-09T03:22:49;9.43;;;8.33;;
11222;SDS011;5668;52.012;8.724;2023-03-09T03:25:17;9.37;;;7.40;;
11222;SDS011;5668;52.012;8.724;2023-03-09T03:27:45;9.43;;;7.90;;
11222;SDS011;5668;52.012;8.724;2023-03-09T03:30:13;8.97;;;8.07;;
11222;SDS011;5668;52.012;8.724;2023-03-09T03:32:40;10.77;;;8.60;;
11222;SDS011;5668;52.012;8.724;2023-03-09T03:35:08;10.03;;;7.47;;
11222;SDS011;5668;52.012;8.724;2023-03-09T03:37:38;10.27;;;8.50;;
11222;SDS011;5668;52.012;8.724;2023-03-09T03:40:06;10.67;;;8.60;;
11222;SDS011;5668;52.012;8.724;2023-03-09T03:42:34;10.37;;;8.57;;
11222;SDS011;5668;52.012;8.724;2023-03-09T03:45:01;9.60;;;8.10;;
11222;SDS011;5668;52.012;8.724;2023-03-09T03:47:29;11.27;;;8.77;;
11222;SDS011;5668;52.012;8.724;2023-03-09T03:49:57;11.20;;;8.90;;
11222;SDS011;5668;52.012;8.724;2023-03-09T03:52:24;11.20;;;8.97;;
11222;SDS011;5668;52.012;8.724;2023-03-09T03:54:53;10.20;;;8.77;;
11222;SDS011;5668;52.012;8.724;2023-03-09T03:57:20;12.30;;;9.37;;
11222;SDS011;5668;52.012;8.724;2023-03-09T03:59:48;10.40;;;8.43;;
11222;SDS011;5668;52.012;8.724;2023-03-09T04:02:15;10.13;;;8.07;;
11222;SDS011;5668;52.012;8.724;2023-03-09T04:04:43;10.50;;;8.70;;
11222;SDS011;5668;52.012;8.724;2023-03-09T04:07:10;9.63;;;8.13;;
11222;SDS011;5668;52.012;8.724;2023-03-09T04:09:38;10.10;;;8.50;;
11222;SDS011;5668;52.012;8.724;2023-03-09T04:12:07;10.17;;;8.47;;
11222;SDS011;5668;52.012;8.724;2023-03-09T04:14:35;10.53;;;8.53;;
11222;SDS011;5668;52.012;8.724;2023-03-09T04:17:03;8.80;;;7.33;;
11222;SDS011;5668;52.012;8.724;2023-03-09T04:19:30;9.97;;;7.70;;
11222;SDS011;5668;52.012;8.724;2023-03-09T04:21:58;8.47;;;7.27;;
11222;SDS011;5668;52.012;8.724;2023-03-09T04:24:25;10.23;;;8.17;;
11222;SDS011;5668;52.012;8.724;2023-03-09T04:26:53;8.87;;;7.97;;
11222;SDS011;5668;52.012;8.724;2023-03-09T04:29:22;9.67;;;8.03;;
11222;SDS011;5668;52.012;8.724;2023-03-09T04:31:49;9.97;;;7.80;;
11222;SDS011;5668;52.012;8.724;2023-03-09T04:34:16;8.50;;;7.47;;
11222;SDS011;5668;52.012;8.724;2023-03-09T04:36:44;9.77;;;7.80;;
11222;SDS011;5668;52.012;8.724;2023-03-09T04:39:11;9.90;;;7.67;;
11222;SDS011;5668;52.012;8.724;2023-03-09T04:41:39;9.77;;;8.53;;
11222;SDS011;5668;52.012;8.724;2023-03-09T04:44:06;9.03;;;7.83;;
11222;SDS011;5668;52.012;8.724;2023-03-09T04:46:35;9.90;;;7.87;;
11222;SDS011;5668;52.012;8.724;2023-03-09T04:49:02;8.90;;;7.63;;
11222;SDS011;5668;52.012;8.724;2023-03-09T04:51:30;10.17;;;8.53;;
11222;SDS011;5668;52.012;8.724;2023-03-09T04:53:57;9.73;;;8.17;;
11222;SDS011;5668;52.012;8.724;2023-03-09T04:56:24;10.70;;;8.63;;
11222;SDS011;5668;52.012;8.724;2023-03-09T04:58:52;9.40;;;7.90;;
11222;SDS011;5668;52.012;8.724;2023-03-09T05:01:20;9.40;;;8.40;;
11222;SDS011;5668;52.012;8.724;2023-03-09T05:03:49;10.30;;;8.90;;
11222;SDS011;5668;52.012;8.724;2023-03-09T05:06:16;9.53;;;8.37;;
11222;SDS011;5668;52.012;8.724;2023-03-09T05:08:44;10.83;;;9.27;;
11222;SDS011;5668;52.012;8.724;2023-03-09T05:11:11;10.70;;;9.13;;
11222;SDS011;5668;52.012;8.724;2023-03-09T05:13:38;11.90;;;9.40;;
11222;SDS011;5668;52.012;8.724;2023-03-09T05:16:06;11.10;;;9.10;;
11222;SDS011;5668;52.012;8.724;2023-03-09T05:18:33;12.80;;;9.70;;
11222;SDS011;5668;52.012;8.724;2023-03-09T05:21:05;12.57;;;9.97;;
11222;SDS011;5668;52.012;8.724;2023-03-09T05:23:33;11.50;;;10.13;;
11222;SDS011;5668;52.012;8.724;2023-03-09T05:26:00;11.77;;;10.17;;
11222;SDS011;5668;52.012;8.724;2023-03-09T05:28:32;11.20;;;10.00;;
11222;SDS011;5668;52.012;8.724;2023-03-09T05:30:59;11.17;;;10.03;;
11222;SDS011;5668;52.012;8.724;2023-03-09T05:33:28;12.70;;;10.97;;
11222;SDS011;5668;52.012;8.724;2023-03-09T05:35:55;12.37;;;10.30;;
11222;SDS011;5668;52.012;8.724;2023-03-09T05:38:24;10.57;;;9.47;;
11222;SDS011;5668;52.012;8.724;2023-03-09T05:40:51;11.33;;;10.13;;
11222;SDS011;5668;52.012;8.724;2023-03-09T05:43:19;13.20;;;10.77;;
11222;SDS011;5668;52.012;8.724;2023-03-09T05:45:52;12.63;;;10.33;;
11222;SDS011;5668;52.012;8.724;2023-03-09T05:48:20;11.93;;;10.73;;
11222;SDS011;5668;52.012;8.724;2023-03-09T05:50:48;11.80;;;10.50;;
11222;SDS011;5668;52.012;8.724;2023-03-09T05:53:15;11.43;;;9.93;;
11222;SDS011;5668;52.012;8.724;2023-03-09T05:55:44;11.80;;;10.33;;
11222;SDS011;5668;52.012;8.724;2023-03-09T05:58:16;10.97;;;9.67;;
11222;SDS011;5668;52.012;8.724;2023-03-09T06:00:44;11.70;;;10.03;;
11222;SDS011;5668;52.012;8.724;2023-03-09T06:03:11;11.93;;;10.10;;
11222;SDS011;5668;52.012;8.724;2023-03-09T06:05:39;11.40;;;10.03;;
11222;SDS011;5668;52.012;8.724;2023-03-09T06:08:06;12.33;;;10.43;;
11222;SDS011;5668;52.012;8.724;2023-03-09T06:10:35;12.07;;;10.67;;
11222;SDS011;5668;52.012;8.724;2023-03-09T06:13:04;10.90;;;9.80;;
11222;SDS011;5668;52.012;8.724;2023-03-09T06:15:32;12.13;;;10.60;;
11222;SDS011;5668;52.012;8.724;2023-03-09T06:18:00;13.57;;;11.60;;
11222;SDS011;5668;52.012;8.724;2023-03-09T06:20:27;13.00;;;11.10;;
11222;SDS011;5668;52.012;8.724;2023-03-09T06:22:54;12.93;;;11.03;;
11222;SDS011;5668;52.012;8.724;2023-03-09T06:25:22;13.07;;;10.40;;
11222;SDS011;5668;52.012;8.724;2023-03-09T06:27:49;11.83;;;10.63;;
11222;SDS011;5668;52.012;8.724;2023-03-09T06:30:18;13.50;;;10.97;;
11222;SDS011;5668;52.012;8.724;2023-03-09T06:32:46;13.57;;;11.77;;
11222;SDS011;5668;52.012;8.724;2023-03-09T06:35:14;12.37;;;10.67;;
11222;SDS011;5668;52.012;8.724;2023-03-09T06:37:41;11.40;;;9.83;;
11222;SDS011;5668;52.012;8.724;2023-03-09T06:40:10;12.97;;;10.47;;
11222;SDS011;5668;52.012;8.724;2023-03-09T06:42:39;12.50;;;11.00;;
11222;SDS011;5668;52.012;8.724;2023-03-09T06:45:07;11.57;;;9.97;;
11222;SDS011;5668;52.012;8.724;2023-03-09T06:47:36;11.20;;;9.63;;
11222;SDS011;5668;52.012;8.724;2023-03-09T06:50:04;11.43;;;9.87;;
11222;SDS011;5668;52.012;8.724;2023-03-09T06:52:33;11.53;;;9.83;;
11222;SDS011;5668;52.012;8.724;2023-03-09T06:55:00;11.23;;;9.33;;
11222;SDS011;5668;52.012;8.724;2023-03-09T06:57:28;11.90;;;9.87;;
11222;SDS011;5668;52.012;8.724;2023-03-09T06:59:55;11.53;;;9.23;;
11222;SDS011;5668;52.012;8.724;2023-03-09T07:02:23;11.30;;;9.37;;
11222;SDS011;5668;52.012;8.724;2023-03-09T07:04:51;10.37;;;9.07;;
11222;SDS011;5668;52.012;8.724;2023-03-09T07:07:19;12.73;;;10.03;;
11222;SDS011;5668;52.012;8.724;2023-03-09T07:09:46;12.03;;;10.13;;
11222;SDS011;5668;52.012;8.724;2023-03-09T07:12:14;11.90;;;9.73;;
11222;SDS011;5668;52.012;8.724;2023-03-09T07:14:41;10.57;;;9.13;;
11222;SDS011;5668;52.012;8.724;2023-03-09T07:17:11;13.93;;;10.90;;
11222;SDS011;5668;52.012;8.724;2023-03-09T07:19:39;11.63;;;10.03;;
11222;SDS011;5668;52.012;8.724;2023-03-09T07:22:08;12.23;;;10.03;;
11222;SDS011;5668;52.012;8.724;2023-03-09T07:24:37;14.90;;;11.13;;
11222;SDS011;5668;52.012;8.724;2023-03-09T07:27:05;13.77;;;10.43;;
11222;SDS011;5668;52.012;8.724;2023-03-09T07:29:33;14.70;;;11.70;;
11222;SDS011;5668;52.012;8.724;2023-03-09T07:32:03;14.40;;;11.80;;
11222;SDS011;5668;52.012;8.724;2023-03-09T07:34:32;14.03;;;11.40;;
11222;SDS011;5668;52.012;8.724;2023-03-09T07:37:00;15.07;;;11.70;;
11222;SDS011;5668;52.012;8.724;2023-03-09T07:39:29;14.27;;;11.10;;
11222;SDS011;5668;52.012;8.724;2023-03-09T07:41:56;13.33;;;11.27;;
11222;SDS011;5668;52.012;8.724;2023-03-09T07:44:23;14.83;;;11.53;;
11222;SDS011;5668;52.012;8.724;2023-03-09T07:46:51;14.43;;;11.23;;
11222;SDS011;5668;52.012;8.724;2023-03-09T07:49:18;13.00;;;10.87;;
11222;SDS011;5668;52.012;8.724;2023-03-09T07:51:45;15.23;;;12.20;;
11222;SDS011;5668;52.012;8.724;2023-03-09T07:54:13;13.50;;;10.83;;
11222;SDS011;5668;52.012;8.724;2023-03-09T07:56:42;15.40;;;11.80;;
11222;SDS011;5668;52.012;8.724;2023-03-09T07:59:13;15.63;;;11.30;;
11222;SDS011;5668;52.012;8.724;2023-03-09T08:01:41;14.07;;;11.73;;
11222;SDS011;5668;52.012;8.724;2023-03-09T08:04:08;13.93;;;11.60;;
11222;SDS011;5668;52.012;8.724;2023-03-09T08:06:37;14.57;;;11.93;;
11222;SDS011;5668;52.012;8.724;2023-03-09T08:09:06;13.60;;;11.10;;
11222;SDS011;5668;52.012;8.724;2023-03-09T08:11:37;13.33;;;10.67;;
11222;SDS011;5668;52.012;8.724;2023-03-09T08:14:06;12.60;;;10.47;;
11222;SDS011;5668;52.012;8.724;2023-03-09T08:16:33;13.17;;;10.73;;
11222;SDS011;5668;52.012;8.724;2023-03-09T08:19:00;13.10;;;10.00;;
11222;SDS011;5668;52.012;8.724;2023-03-09T08:21:27;14.07;;;11.50;;
11222;SDS011;5668;52.012;8.724;2023-03-09T08:23:54;12.43;;;10.37;;
11222;SDS011;5668;52.012;8.724;2023-03-09T08:26:23;13.00;;;10.60;;
11222;SDS011;5668;52.012;8.724;2023-03-09T08:28:50;13.77;;;11.07;;
11222;SDS011;5668;52.012;8.724;2023-03-09T08:31:19;15.73;;;10.90;;
11222;SDS011;5668;52.012;8.724;2023-03-09T08:33:48;14.57;;;11.23;;
11222;SDS011;5668;52.012;8.724;2023-03-09T08:36:16;13.47;;;10.67;;
11222;SDS011;5668;52.012;8.724;2023-03-09T08:38:44;12.57;;;9.70;;
11222;SDS011;5668;52.012;8.724;2023-03-09T08:41:13;17.70;;;15.80;;
11222;SDS011;5668;52.012;8.724;2023-03-09T08:43:41;30.27;;;27.10;;
11222;SDS011;5668;52.012;8.724;2023-03-09T08:46:08;29.53;;;26.40;;
11222;SDS011;5668;52.012;8.724;2023-03-09T08:48:37;23.43;;;20.97;;
11222;SDS011;5668;52.012;8.724;2023-03-09T08:51:05;21.80;;;17.53;;
11222;SDS011;5668;52.012;8.724;2023-03-09T08:53:34;19.23;;;16.70;;
11222;SDS011;5668;52.012;8.724;2023-03-09T08:56:02;22.53;;;20.10;;
11222;SDS011;5668;52.012;8.724;2023-03-09T08:58:30;34.30;;;30.40;;
11222;SDS011;5668;52.012;8.724;2023-03-09T09:00:57;34.90;;;30.40;;
11222;SDS011;5668;52.012;8.724;2023-03-09T09:03:27;29.87;;;25.87;;
11222;SDS011;5668;52.012;8.724;2023-03-09T09:05:56;25.87;;;22.90;;
11222;SDS011;5668;52.012;8.724;2023-03-09T09:08:28;22.60;;;20.20;;
11222;SDS011;5668;52.012;8.724;2023-03-09T09:10:56;18.73;;;15.67;;
11222;SDS011;5668;52.012;8.724;2023-03-09T09:13:23;16.97;;;14.37;;
11222;SDS011;5668;52.012;8.724;2023-03-09T09:15:51;16.97;;;13.13;;
11222;SDS011;5668;52.012;8.724;2023-03-09T09:18:19;14.70;;;12.03;;
11222;SDS011;5668;52.012;8.724;2023-03-09T09:20:46;14.87;;;11.57;;
11222;SDS011;5668;52.012;8.724;2023-03-09T09:23:15;11.90;;;10.30;;
11222;SDS011;5668;52.012;8.724;2023-03-09T09:25:42;12.57;;;10.60;;
11222;SDS011;5668;52.012;8.724;2023-03-09T09:28:09;13.40;;;10.27;;
11222;SDS011;5668;52.012;8.724;2023-03-09T09:30:36;11.90;;;10.17;;
11222;SDS011;5668;52.012;8.724;2023-03-09T09:33:04;13.30;;;9.87;;
11222;SDS011;5668;52.012;8.724;2023-03-09T09:35:31;12.47;;;9.60;;
11222;SDS011;5668;52.012;8.724;2023-03-09T09:37:58;13.63;;;9.40;;
11222;SDS011;5668;52.012;8.724;2023-03-09T09:40:27;12.00;;;9.67;;
11222;SDS011;5668;52.012;8.724;2023-03-09T09:42:54;11.83;;;9.50;;
11222;SDS011;5668;52.012;8.724;2023-03-09T09:45:27;15.43;;;10.07;;
11222;SDS011;5668;52.012;8.724;2023-03-09T09:47:59;14.03;;;10.43;;
11222;SDS011;5668;52.012;8.724;2023-03-09T09:50:32;14.73;;;10.30;;
11222;SDS011;5668;52.012;8.724;2023-03-09T09:53:14;12.97;;;10.17;;
11222;SDS011;5668;52.012;8.724;2023-03-09T09:55:50;13.50;;;10.60;;
11222;SDS011;5668;52.012;8.724;2023-03-09T09:58:23;12.70;;;10.10;;
11222;SDS011;5668;52.012;8.724;2023-03-09T10:00:56;13.07;;;9.83;;
11222;SDS011;5668;52.012;8.724;2023-03-09T10:03:27;14.17;;;10.27;;
11222;SDS011;5668;52.012;8.724;2023-03-09T10:06:00;15.03;;;10.30;;
11222;SDS011;5668;52.012;8.724;2023-03-09T10:08:34;14.83;;;10.90;;
11222;SDS011;5668;52.012;8.724;2023-03-09T10:11:11;14.43;;;10.73;;
11222;SDS011;5668;52.012;8.724;2023-03-09T10:13:43;12.90;;;9.90;;
11222;SDS011;5668;52.012;8.724;2023-03-09T10:16:15;15.27;;;10.50;;
11222;SDS011;5668;52.012;8.724;2023-03-09T10:18:47;13.83;;;10.13;;
11222;SDS011;5668;52.012;8.724;2023-03-09T10:21:19;13.87;;;10.73;;
11222;SDS011;5668;52.012;8.724;2023-03-09T10:23:49;14.27;;;10.47;;
11222;SDS011;5668;52.012;8.724;2023-03-09T10:26:25;15.47;;;11.07;;
11222;SDS011;5668;52.012;8.724;2023-03-09T10:29:03;17.47;;;11.03;;
11222;SDS011;5668;52.012;8.724;2023-03-09T10:31:39;14.83;;;10.37;;
11222;SDS011;5668;52.012;8.724;2023-03-09T10:34:14;15.63;;;10.77;;
11222;SDS011;5668;52.012;8.724;2023-03-09T10:36:46;16.50;;;11.33;;
11222;SDS011;5668;52.012;8.724;2023-03-09T10:39:24;15.20;;;10.90;;
11222;SDS011;5668;52.012;8.724;2023-03-09T10:41:55;14.90;;;11.37;;
11222;SDS011;5668;52.012;8.724;2023-03-09T10:44:24;17.87;;;11.20;;
11222;SDS011;5668;52.012;8.724;2023-03-09T10:46:53;15.60;;;10.97;;
11222;SDS011;5668;52.012;8.724;2023-03-09T10:49:22;16.10;;;11.47;;
11222;SDS011;5668;52.012;8.724;2023-03-09T10:51:54;15.17;;;11.53;;
11222;SDS011;5668;52.012;8.724;2023-03-09T10:54:26;15.47;;;11.47;;
11222;SDS011;5668;52.012;8.724;2023-03-09T10:56:59;16.40;;;11.33;;
11222;SDS011;5668;52.012;8.724;2023-03-09T10:59:27;13.07;;;10.60;;
11222;SDS011;5668;52.012;8.724;2023-03-09T11:01:56;15.83;;;11.23;;
11222;SDS011;5668;52.012;8.724;2023-03-09T11:04:26;15.70;;;12.03;;
11222;SDS011;5668;52.012;8.724;2023-03-09T11:07:00;15.50;;;11.27;;
11222;SDS011;5668;52.012;8.724;2023-03-09T11:09:30;16.40;;;10.93;;
11222;SDS011;5668;52.012;8.724;2023-03-09T11:12:14;17.30;;;12.27;;
11222;SDS011;5668;52.012;8.724;2023-03-09T11:14:44;18.87;;;12.10;;
11222;SDS011;5668;52.012;8.724;2023-03-09T11:20:23;16.10;;;11.90;;
11222;SDS011;5668;52.012;8.724;2023-03-09T11:23:00;15.27;;;12.33;;
11222;SDS011;5668;52.012;8.724;2023-03-09T11:25:42;17.63;;;12.27;;
11222;SDS011;5668;52.012;8.724;2023-03-09T11:28:25;17.53;;;12.60;;
11222;SDS011;5668;52.012;8.724;2023-03-09T11:31:00;14.77;;;12.47;;
11222;SDS011;5668;52.012;8.724;2023-03-09T11:33:27;18.20;;;12.13;;
11222;SDS011;5668;52.012;8.724;2023-03-09T11:35:56;15.50;;;12.13;;
11222;SDS011;5668;52.012;8.724;2023-03-09T11:38:25;16.60;;;12.00;;
11222;SDS011;5668;52.012;8.724;2023-03-09T11:40:58;16.07;;;12.13;;
11222;SDS011;5668;52.012;8.724;2023-03-09T11:43:36;14.77;;;11.50;;
11222;SDS011;5668;52.012;8.724;2023-03-09T11:46:06;17.30;;;12.57;;
11222;SDS011;5668;52.012;8.724;2023-03-09T11:48:40;13.80;;;11.00;;
11222;SDS011;5668;52.012;8.724;2023-03-09T11:51:11;14.30;;;11.17;;
11222;SDS011;5668;52.012;8.724;2023-03-09T11:53:42;17.67;;;12.33;;
11222;SDS011;5668;52.012;8.724;2023-03-09T11:56:15;16.73;;;12.07;;
11222;SDS011;5668;52.012;8.724;2023-03-09T11:58:47;16.13;;;12.03;;
11222;SDS011;5668;52.012;8.724;2023-03-09T12:01:22;16.40;;;12.50;;
11222;SDS011;5668;52.012;8.724;2023-03-09T12:03:56;17.20;;;12.63;;
11222;SDS011;5668;52.012;8.724;2023-03-09T12:06:27;20.70;;;12.60;;
11222;SDS011;5668;52.012;8.724;2023-03-09T12:09:16;18.23;;;13.50;;
11222;SDS011;5668;52.012;8.724;2023-03-09T12:11:50;17.67;;;12.63;;
11222;SDS011;5668;52.012;8.724;2023-03-09T12:14:23;19.00;;;12.83;;
11222;SDS011;5668;52.012;8.724;2023-03-09T12:16:55;15.37;;;12.03;;
11222;SDS011;5668;52.012;8.724;2023-03-09T12:19:29;16.27;;;12.47;;
11222;SDS011;5668;52.012;8.724;2023-03-09T12:22:00;15.53;;;12.57;;
11222;SDS011;5668;52.012;8.724;2023-03-09T12:24:32;15.97;;;13.00;;
11222;SDS011;5668;52.012;8.724;2023-03-09T12:27:03;19.00;;;12.80;;
11222;SDS011;5668;52.012;8.724;2023-03-09T12:29:40;15.87;;;12.13;;
11222;SDS011;5668;52.012;8.724;2023-03-09T12:32:17;18.60;;;12.87;;
11222;SDS011;5668;52.012;8.724;2023-03-09T12:35:04;16.33;;;13.17;;
11222;SDS011;5668;52.012;8.724;2023-03-09T12:40:39;17.53;;;13.33;;
11222;SDS011;5668;52.012;8.724;2023-03-09T12:49:26;19.53;;;14.03;;
11222;SDS011;5668;52.012;8.724;2023-03-09T12:52:02;21.23;;;14.40;;
11222;SDS011;5668;52.012;8.724;2023-03-09T12:54:53;20.13;;;14.73;;
11222;SDS011;5668;52.012;8.724;2023-03-09T12:57:22;19.73;;;14.23;;
11222;SDS011;5668;52.012;8.724;2023-03-09T12:59:49;20.70;;;14.27;;
11222;SDS011;5668;52.012;8.724;2023-03-09T13:02:29;21.13;;;14.73;;
11222;SDS011;5668;52.012;8.724;2023-03-09T13:05:12;18.40;;;13.70;;
11222;SDS011;5668;52.012;8.724;2023-03-09T13:07:51;21.27;;;15.20;;
11222;SDS011;5668;52.012;8.724;2023-03-09T13:10:31;20.20;;;15.27;;
11222;SDS011;5668;52.012;8.724;2023-03-09T13:22:27;19.10;;;14.10;;
11222;SDS011;5668;52.012;8.724;2023-03-09T13:25:11;20.50;;;14.13;;
11222;SDS011;5668;52.012;8.724;2023-03-09T13:27:46;20.87;;;15.00;;
11222;SDS011;5668;52.012;8.724;2023-03-09T13:30:18;21.13;;;16.03;;
11222;SDS011;5668;52.012;8.724;2023-03-09T13:32:51;19.47;;;14.83;;
11222;SDS011;5668;52.012;8.724;2023-03-09T13:35:32;20.43;;;15.63;;
11222;SDS011;5668;52.012;8.724;2023-03-09T13:38:04;19.60;;;14.20;;
11222;SDS011;5668;52.012;8.724;2023-03-09T13:40:46;18.63;;;14.77;;
11222;SDS011;5668;52.012;8.724;2023-03-09T13:43:17;18.20;;;14.53;;
11222;SDS011;5668;52.012;8.724;2023-03-09T13:45:53;21.03;;;14.70;;
11222;SDS011;5668;52.012;8.724;2023-03-09T13:48:43;32.37;;;26.37;;
11222;SDS011;5668;52.012;8.724;2023-03-09T13:51:26;29.47;;;25.17;;
11222;SDS011;5668;52.012;8.724;2023-03-09T13:54:16;43.10;;;37.37;;
11222;SDS011;5668;52.012;8.724;2023-03-09T13:56:56;38.30;;;31.33;;
11222;SDS011;5668;52.012;8.724;2023-03-09T13:59:30;30.30;;;25.40;;
11222;SDS011;5668;52.012;8.724;2023-03-09T14:02:09;44.77;;;36.53;;
11222;SDS011;5668;52.012;8.724;2023-03-09T14:04:43;36.33;;;30.87;;
11222;SDS011;5668;52.012;8.724;2023-03-09T14:07:13;28.60;;;22.23;;
11222;SDS011;5668;52.012;8.724;2023-03-09T14:09:46;23.43;;;18.40;;
11222;SDS011;5668;52.012;8.724;2023-03-09T14:12:21;22.97;;;16.77;;
11222;SDS011;5668;52.012;8.724;2023-03-09T14:14:52;22.10;;;17.07;;
11222;SDS011;5668;52.012;8.724;2023-03-09T14:17:20;19.87;;;16.13;;
11222;SDS011;5668;52.012;8.724;2023-03-09T14:19:50;20.77;;;15.53;;
11222;SDS011;5668;52.012;8.724;2023-03-09T14:22:22;20.23;;;15.77;;
11222;SDS011;5668;52.012;8.724;2023-03-09T14:24:54;22.70;;;17.83;;
11222;SDS011;5668;52.012;8.724;2023-03-09T14:27:23;25.53;;;20.60;;
11222;SDS011;5668;52.012;8.724;2023-03-09T14:29:54;24.13;;;20.10;;
11222;SDS011;5668;52.012;8.724;2023-03-09T14:32:23;32.93;;;28.20;;
11222;SDS011;5668;52.012;8.724;2023-03-09T14:34:54;32.10;;;26.47;;
11222;SDS011;5668;52.012;8.724;2023-03-09T14:37:24;27.00;;;20.83;;
11222;SDS011;5668;52.012;8.724;2023-03-09T14:39:55;24.20;;;20.37;;
11222;SDS011;5668;52.012;8.724;2023-03-09T14:42:24;23.60;;;19.80;;
11222;SDS011;5668;52.012;8.724;2023-03-09T14:45:14;22.60;;;18.07;;
11222;SDS011;5668;52.012;8.724;2023-03-09T14:47:50;21.13;;;16.37;;
11222;SDS011;5668;52.012;8.724;2023-03-09T14:50:22;19.93;;;15.93;;
11222;SDS011;5668;52.012;8.724;2023-03-09T14:52:50;19.80;;;14.93;;
11222;SDS011;5668;52.012;8.724;2023-03-09T14:55:20;20.87;;;15.40;;
11222;SDS011;5668;52.012;8.724;2023-03-09T14:57:48;20.30;;;16.07;;
11222;SDS011;5668;52.012;8.724;2023-03-09T15:00:18;26.97;;;22.20;;
11222;SDS011;5668;52.012;8.724;2023-03-09T15:02:47;42.10;;;35.43;;
11222;SDS011;5668;52.012;8.724;2023-03-09T15:05:15;43.60;;;36.57;;
11222;SDS011;5668;52.012;8.724;2023-03-09T15:07:43;51.83;;;43.57;;
11222;SDS011;5668;52.012;8.724;2023-03-09T15:10:11;42.43;;;33.00;;
11222;SDS011;5668;52.012;8.724;2023-03-09T15:12:42;45.67;;;36.83;;
11222;SDS011;5668;52.012;8.724;2023-03-09T15:15:14;57.83;;;46.80;;
11222;SDS011;5668;52.012;8.724;2023-03-09T15:17:44;72.03;;;56.43;;
11222;SDS011;5668;52.012;8.724;2023-03-09T15:20:12;51.03;;;41.13;;